Time,TemperatureF,DewpointF,PressureIn,WindDirection,WindDirectionDegrees,WindSpeedMPH,WindSpeedGustMPH,Humidity,HourlyPrecipIn,Conditions,Clouds,dailyrainin,SoftwareType,DateUTC
2015-07-05 00:00:00,62.7,50.4,29.34,North,0,0.0,0.0,64,0.00,,---,0.18,VWS V15.00,2015-07-05 06:00:00,
2015-07-05 00:06:00,62.6,50.3,29.34,North,0,0.0,0.0,64,0.00,,---,0.00,VWS V15.00,2015-07-05 06:06:00,
2015-07-05 00:12:00,62.4,50.5,29.34,North,0,0.0,0.0,65,0.00,,---,0.00,VWS V15.00,2015-07-05 06:12:00,
2015-07-05 00:18:00,62.3,50.8,29.42,North,0,0.0,0.0,66,0.00,,---,0.00,VWS V15.00,2015-07-05 06:18:00,
2015-07-05 00:24:00,62.1,50.2,29.42,North,0,0.0,0.0,65,0.00,,---,0.00,VWS V15.00,2015-07-05 06:24:00,
2015-07-05 00:30:00,62.0,50.5,29.42,North,0,0.0,2.0,66,0.00,,---,0.00,VWS V15.00,2015-07-05 06:30:00,
2015-07-05 00:36:00,61.8,50.7,29.42,North,0,0.0,0.0,67,0.00,,---,0.00,VWS V15.00,2015-07-05 06:36:00,
2015-07-05 00:42:00,61.5,50.5,29.42,North,0,0.0,0.0,67,0.00,,---,0.00,VWS V15.00,2015-07-05 06:42:00,
2015-07-05 00:48:00,61.3,50.3,29.43,North,0,0.0,0.0,67,0.00,,---,0.00,VWS V15.00,2015-07-05 06:48:00,
2015-07-05 00:54:00,61.2,50.2,29.43,North,0,0.0,1.0,67,0.00,,---,0.00,VWS V15.00,2015-07-05 06:54:00,
2015-07-05 01:00:00,61.0,50.0,29.43,North,0,3.0,4.0,67,0.00,,---,0.00,VWS V15.00,2015-07-05 07:00:00,
2015-07-05 01:06:00,61.0,49.6,29.43,North,0,2.0,3.0,66,0.00,,---,0.00,VWS V15.00,2015-07-05 07:06:00,
2015-07-05 01:12:00,61.0,49.2,29.43,North,0,0.0,3.0,65,0.00,,---,0.00,VWS V15.00,2015-07-05 07:12:00,
2015-07-05 01:18:00,61.0,49.2,29.39,North,0,0.0,0.0,65,0.00,,---,0.00,VWS V15.00,2015-07-05 07:18:00,
2015-07-05 01:24:00,60.9,49.1,29.39,North,0,0.0,0.0,65,0.00,,---,0.00,VWS V15.00,2015-07-05 07:24:00,
2015-07-05 01:30:00,60.9,48.7,29.39,North,0,0.0,1.0,64,0.00,,---,0.00,VWS V15.00,2015-07-05 07:30:00,
2015-07-05 01:36:00,61.2,47.7,29.39,North,0,0.0,0.0,61,0.00,,---,0.00,VWS V15.00,2015-07-05 07:36:00,
2015-07-05 01:42:00,61.6,47.6,29.39,North,0,0.0,0.0,60,0.00,,---,0.00,VWS V15.00,2015-07-05 07:42:00,
2015-07-05 01:48:00,61.8,48.2,29.40,North,0,0.0,0.0,61,0.00,,---,0.00,VWS V15.00,2015-07-05 07:48:00,
2015-07-05 01:54:00,61.8,48.2,29.40,North,0,0.0,0.0,61,0.00,,---,0.00,VWS V15.00,2015-07-05 07:54:00,
2015-07-05 02:00:00,61.6,48.0,29.40,North,0,0.0,0.0,61,0.00,,---,0.00,VWS V15.00,2015-07-05 08:00:00,
2015-07-05 02:06:00,61.5,47.9,29.39,North,0,0.0,3.0,61,0.00,,---,0.00,VWS V15.00,2015-07-05 08:06:00,
2015-07-05 02:12:00,61.6,46.7,29.39,NNW,343,5.0,8.0,58,0.00,,---,0.00,VWS V15.00,2015-07-05 08:12:00,
2015-07-05 02:18:00,64.7,44.0,29.30,NNW,329,2.0,10.0,47,0.00,,---,0.00,VWS V15.00,2015-07-05 08:18:00,
2015-07-05 02:24:00,68.1,45.4,29.30,SSE,157,3.0,10.0,44,0.00,,---,0.00,VWS V15.00,2015-07-05 08:24:00,
2015-07-05 02:30:00,69.9,44.5,29.30,West,271,1.0,10.0,40,0.00,,---,0.00,VWS V15.00,2015-07-05 08:30:00,
2015-07-05 02:36:00,70.9,44.7,29.27,West,264,1.0,3.0,39,0.00,,---,0.00,VWS V15.00,2015-07-05 08:36:00,
2015-07-05 02:42:00,70.9,46.7,29.27,West,264,0.0,3.0,42,0.00,,---,0.00,VWS V15.00,2015-07-05 08:42:00,
2015-07-05 02:48:00,69.3,47.7,29.27,West,264,0.0,1.0,46,0.00,,---,0.00,VWS V15.00,2015-07-05 08:48:00,
2015-07-05 02:54:00,67.8,47.4,29.27,West,264,0.0,2.0,48,0.00,,---,0.00,VWS V15.00,2015-07-05 08:54:00,
2015-07-05 03:00:00,66.8,48.1,29.27,West,264,0.0,2.0,51,0.00,,---,0.00,VWS V15.00,2015-07-05 09:00:00,
2015-07-05 03:06:00,65.8,48.2,29.28,West,264,0.0,1.0,53,0.00,,---,0.00,VWS V15.00,2015-07-05 09:06:00,
2015-07-05 03:12:00,64.8,48.3,29.28,West,264,0.0,3.0,55,0.00,,---,0.00,VWS V15.00,2015-07-05 09:12:00,
2015-07-05 03:18:00,64.2,48.7,29.28,West,264,0.0,1.0,57,0.00,,---,0.00,VWS V15.00,2015-07-05 09:18:00,
2015-07-05 03:24:00,63.9,48.4,29.28,West,264,0.0,2.0,57,0.00,,---,0.00,VWS V15.00,2015-07-05 09:24:00,
2015-07-05 03:30:00,63.4,48.8,29.28,West,264,0.0,2.0,59,0.00,,---,0.00,VWS V15.00,2015-07-05 09:30:00,
2015-07-05 03:36:00,63.1,48.6,29.29,West,264,0.0,0.0,59,0.00,,---,0.00,VWS V15.00,2015-07-05 09:36:00,
2015-07-05 03:42:00,62.6,49.0,29.29,West,264,0.0,0.0,61,0.00,,---,0.00,VWS V15.00,2015-07-05 09:42:00,
2015-07-05 03:48:00,62.1,48.9,29.29,West,264,0.0,0.0,62,0.00,,---,0.00,VWS V15.00,2015-07-05 09:48:00,
2015-07-05 03:54:00,61.8,49.1,29.29,West,264,0.0,0.0,63,0.00,,---,0.00,VWS V15.00,2015-07-05 09:54:00,
2015-07-05 04:00:00,61.5,48.8,29.29,West,264,0.0,0.0,63,0.00,,---,0.00,VWS V15.00,2015-07-05 10:00:00,
2015-07-05 04:06:00,61.3,49.0,29.29,West,264,0.0,0.0,64,0.00,,---,0.00,VWS V15.00,2015-07-05 10:06:00,
2015-07-05 04:12:00,61.0,48.8,29.29,West,265,0.0,3.0,64,0.00,,---,0.00,VWS V15.00,2015-07-05 10:12:00,
2015-07-05 04:18:00,60.7,49.3,29.29,West,265,0.0,0.0,66,0.00,,---,0.00,VWS V15.00,2015-07-05 10:18:00,
2015-07-05 04:24:00,60.5,49.1,29.29,West,265,0.0,0.0,66,0.00,,---,0.00,VWS V15.00,2015-07-05 10:24:00,
2015-07-05 04:30:00,60.4,49.0,29.29,West,265,0.0,1.0,66,0.00,,---,0.00,VWS V15.00,2015-07-05 10:30:00,
2015-07-05 04:36:00,60.2,48.8,29.30,West,265,0.0,2.0,66,0.00,,---,0.00,VWS V15.00,2015-07-05 10:36:00,
2015-07-05 04:42:00,60.1,49.1,29.30,West,265,0.0,2.0,67,0.00,,---,0.00,VWS V15.00,2015-07-05 10:42:00,
2015-07-05 04:48:00,60.1,49.1,29.30,West,265,0.0,1.0,67,0.00,,---,0.00,VWS V15.00,2015-07-05 10:48:00,
2015-07-05 04:55:00,59.9,48.9,29.30,West,265,1.0,2.0,67,0.00,,---,0.00,VWS V15.00,2015-07-05 10:55:00,
2015-07-05 05:01:00,59.8,48.8,29.30,West,265,1.0,2.0,67,0.00,,---,0.00,VWS V15.00,2015-07-05 11:01:00,
2015-07-05 05:07:00,59.8,49.2,29.30,West,265,0.0,0.0,68,0.00,,---,0.00,VWS V15.00,2015-07-05 11:07:00,
2015-07-05 05:13:00,59.6,49.0,29.30,West,265,0.0,1.0,68,0.00,,---,0.00,VWS V15.00,2015-07-05 11:13:00,
2015-07-05 05:19:00,59.5,48.9,29.33,West,265,0.0,0.0,68,0.00,,---,0.00,VWS V15.00,2015-07-05 11:19:00,
2015-07-05 05:25:00,59.3,48.8,29.33,West,265,0.0,1.0,68,0.00,,---,0.00,VWS V15.00,2015-07-05 11:25:00,
2015-07-05 05:31:00,59.3,48.8,29.34,West,265,0.0,2.0,68,0.00,,---,0.00,VWS V15.00,2015-07-05 11:31:00,
2015-07-05 05:37:00,59.2,49.0,29.34,West,265,1.0,1.0,69,0.00,,---,0.00,VWS V15.00,2015-07-05 11:37:00,
2015-07-05 05:43:00,59.0,48.9,29.34,West,265,1.0,3.0,69,0.00,,---,0.00,VWS V15.00,2015-07-05 11:43:00,
2015-07-05 05:49:00,59.0,49.2,29.35,West,265,0.0,0.0,70,0.00,,---,0.00,VWS V15.00,2015-07-05 11:49:00,
2015-07-05 05:55:00,58.9,49.2,29.35,West,265,0.0,1.0,70,0.00,,---,0.00,VWS V15.00,2015-07-05 11:55:00,
2015-07-05 06:01:00,58.7,49.0,29.35,West,265,0.0,2.0,70,0.00,,---,0.00,VWS V15.00,2015-07-05 12:01:00,
2015-07-05 06:07:00,58.6,48.9,29.35,West,265,0.0,1.0,70,0.00,,---,0.00,VWS V15.00,2015-07-05 12:07:00,
2015-07-05 06:13:00,58.7,49.0,29.35,West,265,0.0,1.0,70,0.00,,---,0.00,VWS V15.00,2015-07-05 12:13:00,
2015-07-05 06:19:00,58.7,49.0,29.40,West,265,0.0,1.0,70,0.00,,---,0.00,VWS V15.00,2015-07-05 12:19:00,
2015-07-05 06:25:00,58.9,49.5,29.40,West,265,0.0,1.0,71,0.00,,---,0.00,VWS V15.00,2015-07-05 12:25:00,
2015-07-05 06:31:00,58.9,49.5,29.40,West,265,0.0,1.0,71,0.00,,---,0.00,VWS V15.00,2015-07-05 12:31:00,
2015-07-05 06:37:00,58.9,49.5,29.40,West,265,0.0,3.0,71,0.00,,---,0.00,VWS V15.00,2015-07-05 12:37:00,
2015-07-05 06:43:00,59.2,49.8,29.40,West,265,0.0,3.0,71,0.00,,---,0.00,VWS V15.00,2015-07-05 12:43:00,
2015-07-05 06:49:00,59.6,50.2,29.40,West,265,0.0,0.0,71,0.00,,---,0.00,VWS V15.00,2015-07-05 12:49:00,
2015-07-05 06:55:00,60.1,50.3,29.40,West,265,0.0,0.0,70,0.00,,---,0.00,VWS V15.00,2015-07-05 12:55:00,
2015-07-05 07:01:00,60.7,50.5,29.39,West,265,0.0,1.0,69,0.00,,---,0.00,VWS V15.00,2015-07-05 13:01:00,
2015-07-05 07:07:00,61.6,51.7,29.39,West,265,0.0,0.0,70,0.00,,---,0.00,VWS V15.00,2015-07-05 13:07:00,
2015-07-05 07:13:00,62.4,53.3,29.39,West,265,0.0,0.0,72,0.00,,---,0.00,VWS V15.00,2015-07-05 13:13:00,
2015-07-05 07:19:00,62.9,52.6,29.36,West,265,0.0,0.0,69,0.00,,---,0.00,VWS V15.00,2015-07-05 13:19:00,
2015-07-05 07:25:00,63.5,52.0,29.36,West,265,0.0,0.0,66,0.00,,---,0.00,VWS V15.00,2015-07-05 13:25:00,
2015-07-05 07:31:00,64.0,51.6,29.37,West,265,0.0,0.0,64,0.00,,---,0.00,VWS V15.00,2015-07-05 13:31:00,
2015-07-05 07:37:00,64.5,52.1,29.37,West,265,0.0,0.0,64,0.00,,---,0.00,VWS V15.00,2015-07-05 13:37:00,
2015-07-05 07:43:00,64.8,52.3,29.37,West,265,0.0,0.0,64,0.00,,---,0.00,VWS V15.00,2015-07-05 13:43:00,
2015-07-05 07:49:00,65.8,53.3,29.34,West,265,0.0,0.0,64,0.00,,---,0.00,VWS V15.00,2015-07-05 13:49:00,
2015-07-05 07:55:00,66.8,52.9,29.34,West,265,0.0,0.0,61,0.00,,---,0.00,VWS V15.00,2015-07-05 13:55:00,
2015-07-05 08:01:00,67.4,52.6,29.34,West,265,0.0,0.0,59,0.00,,---,0.00,VWS V15.00,2015-07-05 14:01:00,
2015-07-05 08:07:00,67.8,53.0,29.34,West,265,0.0,0.0,59,0.00,,---,0.00,VWS V15.00,2015-07-05 14:07:00,
2015-07-05 08:13:00,68.1,52.3,29.34,West,265,0.0,0.0,57,0.00,,---,0.00,VWS V15.00,2015-07-05 14:13:00,
2015-07-05 08:19:00,68.4,52.6,29.36,West,265,0.0,0.0,57,0.00,,---,0.00,VWS V15.00,2015-07-05 14:19:00,
2015-07-05 08:25:00,69.8,53.4,29.36,West,265,0.0,0.0,56,0.00,,---,0.00,VWS V15.00,2015-07-05 14:25:00,
2015-07-05 08:31:00,70.4,54.0,29.34,West,265,0.0,0.0,56,0.00,,---,0.00,VWS V15.00,2015-07-05 14:31:00,
2015-07-05 08:37:00,71.5,55.0,29.34,West,265,0.0,0.0,56,0.00,,---,0.00,VWS V15.00,2015-07-05 14:37:00,
2015-07-05 08:43:00,72.5,55.9,29.34,West,265,0.0,0.0,56,0.00,,---,0.00,VWS V15.00,2015-07-05 14:43:00,
2015-07-05 08:49:00,72.8,56.2,29.31,West,265,0.0,0.0,56,0.00,,---,0.00,VWS V15.00,2015-07-05 14:49:00,
2015-07-05 08:55:00,73.2,56.6,29.31,West,265,0.0,0.0,56,0.00,,---,0.00,VWS V15.00,2015-07-05 14:55:00,
2015-07-05 09:01:00,73.5,56.9,29.30,West,265,0.0,0.0,56,0.00,,---,0.00,VWS V15.00,2015-07-05 15:01:00,
2015-07-05 09:07:00,74.0,52.5,29.30,West,265,0.0,0.0,47,0.00,,---,0.00,VWS V15.00,2015-07-05 15:07:00,
2015-07-05 09:13:00,74.6,50.7,29.30,West,265,0.0,0.0,43,0.00,,---,0.00,VWS V15.00,2015-07-05 15:13:00,
2015-07-05 09:19:00,75.3,52.5,29.31,West,265,0.0,0.0,45,0.00,,---,0.00,VWS V15.00,2015-07-05 15:19:00,
2015-07-05 09:25:00,75.8,52.4,29.31,West,265,0.0,0.0,44,0.00,,---,0.00,VWS V15.00,2015-07-05 15:25:00,
2015-07-05 09:31:00,76.5,51.7,29.30,West,265,0.0,0.0,42,0.00,,---,0.00,VWS V15.00,2015-07-05 15:31:00,
2015-07-05 09:37:00,77.4,49.8,29.30,West,265,0.0,0.0,38,0.00,,---,0.00,VWS V15.00,2015-07-05 15:37:00,
2015-07-05 09:43:00,78.5,52.2,29.30,West,265,0.0,0.0,40,0.00,,---,0.00,VWS V15.00,2015-07-05 15:43:00,
2015-07-05 09:49:00,79.6,51.1,29.27,West,265,0.0,0.0,37,0.00,,---,0.00,VWS V15.00,2015-07-05 15:49:00,
2015-07-05 09:55:00,80.3,46.9,29.27,West,265,0.0,0.0,31,0.00,,---,0.00,VWS V15.00,2015-07-05 15:55:00,
2015-07-05 10:01:00,81.1,48.5,29.27,West,265,0.0,1.0,32,0.00,,---,0.00,VWS V15.00,2015-07-05 16:01:00,
2015-07-05 10:07:00,81.8,48.2,29.27,West,265,0.0,0.0,31,0.00,,---,0.00,VWS V15.00,2015-07-05 16:07:00,
2015-07-05 10:13:00,82.2,45.9,29.27,West,265,0.0,0.0,28,0.00,,---,0.00,VWS V15.00,2015-07-05 16:13:00,
2015-07-05 10:19:00,82.2,47.7,29.28,West,265,0.0,0.0,30,0.00,,---,0.00,VWS V15.00,2015-07-05 16:19:00,
2015-07-05 10:25:00,82.4,47.0,29.28,West,265,0.0,1.0,29,0.00,,---,0.00,VWS V15.00,2015-07-05 16:25:00,
2015-07-05 10:37:00,82.2,48.6,29.28,West,265,0.0,0.0,31,0.00,,---,0.00,VWS V15.00,2015-07-05 16:37:00,
2015-07-05 10:43:00,82.0,48.4,29.28,West,265,0.0,0.0,31,0.00,,---,0.00,VWS V15.00,2015-07-05 16:43:00,
2015-07-05 10:49:00,82.2,49.4,29.27,West,265,0.0,0.0,32,0.00,,---,0.00,VWS V15.00,2015-07-05 16:49:00,
2015-07-05 10:55:00,81.8,48.2,29.27,West,265,0.0,0.0,31,0.00,,---,0.00,VWS V15.00,2015-07-05 16:55:00,
2015-07-05 11:01:00,81.2,47.7,29.29,West,265,0.0,3.0,31,0.00,,---,0.00,VWS V15.00,2015-07-05 17:01:00,
2015-07-05 11:07:00,81.4,48.7,29.29,West,265,0.0,0.0,32,0.00,,---,0.00,VWS V15.00,2015-07-05 17:07:00,
2015-07-05 11:13:00,81.6,48.1,29.29,West,265,0.0,0.0,31,0.00,,---,0.00,VWS V15.00,2015-07-05 17:13:00,
2015-07-05 11:19:00,82.2,46.8,29.31,West,263,0.0,1.0,29,0.00,,---,0.00,VWS V15.00,2015-07-05 17:19:00,
2015-07-05 11:25:00,82.4,47.0,29.31,SSE,168,7.0,7.0,29,0.00,,---,0.00,VWS V15.00,2015-07-05 17:25:00,
2015-07-05 11:31:00,82.4,46.1,29.31,SSE,167,0.0,7.0,28,0.00,,---,0.00,VWS V15.00,2015-07-05 17:31:00,
2015-07-05 11:37:00,81.8,47.4,29.31,SSE,160,2.0,6.0,30,0.00,,---,0.00,VWS V15.00,2015-07-05 17:37:00,
2015-07-05 11:43:00,82.0,48.4,29.31,SSE,160,0.0,6.0,31,0.00,,---,0.00,VWS V15.00,2015-07-05 17:43:00,
2015-07-05 11:49:00,82.4,47.0,29.30,SSE,160,0.0,3.0,29,0.00,,---,0.00,VWS V15.00,2015-07-05 17:49:00,
2015-07-05 11:55:00,83.2,44.8,29.30,SSE,161,3.0,4.0,26,0.00,,---,0.00,VWS V15.00,2015-07-05 17:55:00,
2015-07-05 12:01:00,83.4,46.0,29.30,South,179,0.0,5.0,27,0.00,,---,0.00,VWS V15.00,2015-07-05 18:01:00,
2015-07-05 12:09:00,83.6,45.1,29.30,SSW,212,2.0,6.0,26,0.00,,---,0.00,VWS V15.00,2015-07-05 18:09:00,
2015-07-05 12:15:00,83.4,46.0,29.30,SSW,195,1.0,7.0,27,0.00,,---,0.00,VWS V15.00,2015-07-05 18:15:00,
2015-07-05 12:21:00,83.2,45.8,29.31,SSW,195,0.0,2.0,27,0.00,,---,0.00,VWS V15.00,2015-07-05 18:21:00,
2015-07-05 12:27:00,83.0,46.6,29.31,SSW,195,0.0,3.0,28,0.00,,---,0.00,VWS V15.00,2015-07-05 18:27:00,
2015-07-05 12:33:00,83.2,46.7,29.31,SSW,195,0.0,0.0,28,0.00,,---,0.00,VWS V15.00,2015-07-05 18:33:00,
2015-07-05 12:39:00,83.2,47.7,29.31,SSW,196,0.0,1.0,29,0.00,,---,0.00,VWS V15.00,2015-07-05 18:39:00,
2015-07-05 12:45:00,83.2,46.7,29.31,SSW,195,0.0,2.0,28,0.00,,---,0.00,VWS V15.00,2015-07-05 18:45:00,
2015-07-05 12:51:00,83.0,46.6,29.31,SSW,195,0.0,3.0,28,0.00,,---,0.00,VWS V15.00,2015-07-05 18:51:00,
2015-07-05 12:57:00,82.6,48.1,29.31,SSW,195,0.0,3.0,30,0.00,,---,0.00,VWS V15.00,2015-07-05 18:57:00,
2015-07-05 13:03:00,82.2,48.6,29.31,South,178,3.0,7.0,31,0.00,,---,0.00,VWS V15.00,2015-07-05 19:03:00,
2015-07-05 13:09:00,82.0,50.1,29.31,South,181,0.0,7.0,33,0.00,,---,0.00,VWS V15.00,2015-07-05 19:09:00,
2015-07-05 13:15:00,82.0,49.3,29.31,South,179,0.0,7.0,32,0.00,,---,0.00,VWS V15.00,2015-07-05 19:15:00,
2015-07-05 13:21:00,81.6,48.9,29.30,South,179,0.0,2.0,32,0.00,,---,0.00,VWS V15.00,2015-07-05 19:21:00,
2015-07-05 13:27:00,81.6,48.1,29.30,South,181,0.0,7.0,31,0.00,,---,0.00,VWS V15.00,2015-07-05 19:27:00,
2015-07-05 13:33:00,81.6,50.5,29.29,South,178,0.0,7.0,34,0.00,,---,0.00,VWS V15.00,2015-07-05 19:33:00,
2015-07-05 13:39:00,82.0,51.7,29.29,South,174,0.0,7.0,35,0.00,,---,0.00,VWS V15.00,2015-07-05 19:39:00,
2015-07-05 13:45:00,81.8,50.7,29.29,South,172,0.0,7.0,34,0.00,,---,0.00,VWS V15.00,2015-07-05 19:45:00,
2015-07-05 13:51:00,81.4,47.0,29.28,SSE,147,0.0,2.0,30,0.00,,---,0.00,VWS V15.00,2015-07-05 19:51:00,
2015-07-05 13:57:00,81.8,48.2,29.28,SE,144,0.0,3.0,31,0.00,,---,0.00,VWS V15.00,2015-07-05 19:57:00,
2015-07-05 14:03:00,82.6,49.8,29.28,SE,145,2.0,2.0,32,0.00,,---,0.00,VWS V15.00,2015-07-05 20:03:00,
2015-07-05 14:09:00,83.6,48.9,29.28,SSE,150,0.0,5.0,30,0.00,,---,0.00,VWS V15.00,2015-07-05 20:09:00,
2015-07-05 14:15:00,83.8,48.2,29.28,SE,127,0.0,5.0,29,0.00,,---,0.00,VWS V15.00,2015-07-05 20:15:00,
2015-07-05 14:21:00,83.0,48.4,29.25,SE,126,0.0,1.0,30,0.00,,---,0.00,VWS V15.00,2015-07-05 20:21:00,
2015-07-05 14:27:00,83.0,47.5,29.25,ESE,112,0.0,1.0,29,0.00,,---,0.00,VWS V15.00,2015-07-05 20:27:00,
2015-07-05 14:33:00,83.4,48.8,29.24,NNE,24,2.0,2.0,30,0.00,,---,0.00,VWS V15.00,2015-07-05 20:33:00,
2015-07-05 14:39:00,83.4,47.8,29.24,NNE,24,0.0,2.0,29,0.00,,---,0.00,VWS V15.00,2015-07-05 20:39:00,
2015-07-05 14:45:00,83.0,48.4,29.24,NNE,23,0.0,2.0,30,0.00,,---,0.00,VWS V15.00,2015-07-05 20:45:00,
2015-07-05 14:51:00,82.8,49.1,29.23,NNE,23,0.0,0.0,31,0.00,,---,0.00,VWS V15.00,2015-07-05 20:51:00,
2015-07-05 14:57:00,83.2,46.7,29.23,NNE,24,0.0,2.0,28,0.00,,---,0.00,VWS V15.00,2015-07-05 20:57:00,
2015-07-05 15:03:00,83.6,48.0,29.23,NNE,24,0.0,0.0,29,0.00,,---,0.00,VWS V15.00,2015-07-05 21:03:00,
2015-07-05 15:09:00,83.6,48.0,29.23,NNE,24,0.0,2.0,29,0.00,,---,0.00,VWS V15.00,2015-07-05 21:09:00,
2015-07-05 15:15:00,84.1,47.5,29.23,NNE,24,0.0,2.0,28,0.00,,---,0.00,VWS V15.00,2015-07-05 21:15:00,
2015-07-05 15:21:00,84.5,47.8,29.25,NNE,24,1.0,2.0,28,0.00,,---,0.00,VWS V15.00,2015-07-05 21:21:00,
2015-07-05 15:28:00,84.3,47.7,29.25,North,0,0.0,2.0,28,0.00,,---,0.00,VWS V15.00,2015-07-05 21:28:00,
2015-07-05 15:34:00,84.1,47.5,29.25,North,0,0.0,1.0,28,0.00,,---,0.00,VWS V15.00,2015-07-05 21:34:00,
2015-07-05 15:46:00,83.6,46.1,29.26,NNW,332,2.0,9.0,27,0.00,,---,0.00,VWS V15.00,2015-07-05 21:46:00,
2015-07-05 15:52:00,82.6,46.2,29.26,NNW,328,2.0,13.0,28,0.00,,---,0.00,VWS V15.00,2015-07-05 21:52:00,
2015-07-05 15:58:00,81.8,47.4,29.26,NW,326,4.0,13.0,30,0.00,,---,0.00,VWS V15.00,2015-07-05 21:58:00,
2015-07-05 16:04:00,81.8,49.1,29.27,NNW,344,6.0,6.0,32,0.00,,---,0.00,VWS V15.00,2015-07-05 22:04:00,
2015-07-05 16:10:00,82.0,48.4,29.27,NNW,340,2.0,6.0,31,0.00,,---,0.00,VWS V15.00,2015-07-05 22:10:00,
2015-07-05 16:16:00,82.8,45.4,29.28,NNW,342,3.0,7.0,27,0.00,,---,0.00,VWS V15.00,2015-07-05 22:16:00,
2015-07-05 16:22:00,84.1,46.5,29.28,West,270,3.0,5.0,27,0.00,,---,0.00,VWS V15.00,2015-07-05 22:22:00,
2015-07-05 16:28:00,84.5,46.9,29.28,NNW,333,2.0,5.0,27,0.00,,---,0.00,VWS V15.00,2015-07-05 22:28:00,
2015-07-05 16:34:00,84.9,47.2,29.26,NW,325,1.0,2.0,27,0.00,,---,0.00,VWS V15.00,2015-07-05 22:34:00,
2015-07-05 16:40:00,85.1,47.4,29.26,NW,325,0.0,3.0,27,0.00,,---,0.00,VWS V15.00,2015-07-05 22:40:00,
2015-07-05 16:46:00,85.3,47.6,29.26,NW,323,1.0,3.0,27,0.00,,---,0.00,VWS V15.00,2015-07-05 22:46:00,
2015-07-05 16:52:00,85.7,46.9,29.26,NNW,336,0.0,2.0,26,0.00,,---,0.00,VWS V15.00,2015-07-05 22:52:00,
2015-07-05 16:58:00,85.7,47.9,29.26,NNW,332,0.0,2.0,27,0.00,,---,0.00,VWS V15.00,2015-07-05 22:58:00,
2015-07-05 17:04:00,85.7,46.9,29.25,NW,326,0.0,0.0,26,0.00,,---,0.00,VWS V15.00,2015-07-05 23:04:00,
2015-07-05 17:10:00,85.5,45.7,29.25,NW,326,0.0,0.0,25,0.00,,---,0.00,VWS V15.00,2015-07-05 23:10:00,
2015-07-05 17:16:00,85.9,48.1,29.27,NW,326,0.0,1.0,27,0.00,,---,0.00,VWS V15.00,2015-07-05 23:16:00,
2015-07-05 17:22:00,85.7,48.9,29.27,NNW,328,0.0,1.0,28,0.00,,---,0.00,VWS V15.00,2015-07-05 23:22:00,
2015-07-05 17:28:00,84.9,48.2,29.27,NW,325,1.0,2.0,28,0.00,,---,0.00,VWS V15.00,2015-07-05 23:28:00,
2015-07-05 17:34:00,84.0,48.4,29.28,North,10,5.0,10.0,29,0.00,,---,0.00,VWS V15.00,2015-07-05 23:34:00,
2015-07-05 17:40:00,81.6,50.5,29.28,North,0,5.0,10.0,34,0.00,,---,0.00,VWS V15.00,2015-07-05 23:40:00,
2015-07-05 17:46:00,79.9,50.6,29.32,North,357,6.0,12.0,36,0.00,,---,0.00,VWS V15.00,2015-07-05 23:46:00,
2015-07-05 17:52:00,79.0,51.2,29.32,North,0,2.0,11.0,38,0.00,,---,0.00,VWS V15.00,2015-07-05 23:52:00,
2015-07-05 17:58:00,78.5,51.5,29.32,NNW,343,2.0,11.0,39,0.00,,---,0.00,VWS V15.00,2015-07-05 23:58:00,
2015-07-05 18:04:00,77.7,50.8,29.33,North,0,3.0,11.0,39,0.00,,---,0.00,VWS V15.00,2015-07-06 00:04:00,
2015-07-05 18:10:00,77.0,50.9,29.33,NNE,24,7.0,11.0,40,0.00,,---,0.00,VWS V15.00,2015-07-06 00:10:00,
2015-07-05 18:16:00,76.5,51.1,29.33,NNE,18,9.0,12.0,41,0.00,,---,0.00,VWS V15.00,2015-07-06 00:16:00,
2015-07-05 18:22:00,76.1,52.0,29.33,North,0,2.0,8.0,43,0.00,,---,0.00,VWS V15.00,2015-07-06 00:22:00,
2015-07-05 18:28:00,74.9,53.3,29.33,North,0,2.0,8.0,47,0.00,,---,0.00,VWS V15.00,2015-07-06 00:28:00,
2015-07-05 18:34:00,73.5,53.7,29.34,North,359,6.0,6.0,50,0.00,,---,0.00,VWS V15.00,2015-07-06 00:34:00,
2015-07-05 18:40:00,72.7,53.5,29.34,NNE,17,3.0,7.0,51,0.00,,---,0.00,VWS V15.00,2015-07-06 00:40:00,
2015-07-05 18:46:00,72.1,53.0,29.36,NE,34,4.0,8.0,51,0.00,,---,0.00,VWS V15.00,2015-07-06 00:46:00,
2015-07-05 18:52:00,71.8,53.2,29.36,NNE,14,6.0,10.0,52,0.00,,---,0.00,VWS V15.00,2015-07-06 00:52:00,
2015-07-05 18:58:00,71.3,53.8,29.36,NNE,13,5.0,10.0,54,0.00,,---,0.00,VWS V15.00,2015-07-06 00:58:00,
2015-07-05 19:04:00,70.6,54.6,29.37,NE,47,8.0,12.0,57,0.00,,---,0.00,VWS V15.00,2015-07-06 01:04:00,
2015-07-05 19:10:00,69.8,55.3,29.37,NE,55,5.0,12.0,60,0.00,,---,0.00,VWS V15.00,2015-07-06 01:10:00,
2015-07-05 19:16:00,69.3,54.8,29.34,North,0,4.0,12.0,60,0.00,,---,0.00,VWS V15.00,2015-07-06 01:16:00,
2015-07-05 19:22:00,69.3,53.4,29.34,NNE,31,8.0,13.0,57,0.00,,---,0.00,VWS V15.00,2015-07-06 01:22:00,
2015-07-05 19:28:00,69.4,53.5,29.34,North,353,6.0,13.0,57,0.00,,---,0.00,VWS V15.00,2015-07-06 01:28:00,
2015-07-05 19:34:00,69.4,54.0,29.34,North,356,6.0,10.0,58,0.00,,---,0.00,VWS V15.00,2015-07-06 01:34:00,
2015-07-05 19:40:00,69.3,54.4,29.34,NNE,28,3.0,13.0,59,0.00,,---,0.00,VWS V15.00,2015-07-06 01:40:00,
2015-07-05 19:46:00,68.9,54.5,29.34,NNW,335,2.0,13.0,60,0.00,,---,0.00,VWS V15.00,2015-07-06 01:46:00,
2015-07-05 19:52:00,68.9,54.5,29.34,NNW,347,5.0,11.0,60,0.00,,---,0.00,VWS V15.00,2015-07-06 01:52:00,
2015-07-05 19:58:00,68.9,54.5,29.34,North,359,2.0,11.0,60,0.00,,---,0.00,VWS V15.00,2015-07-06 01:58:00,
2015-07-05 20:04:00,68.8,54.8,29.34,North,11,5.0,7.0,61,0.00,,---,0.00,VWS V15.00,2015-07-06 02:04:00,
2015-07-05 20:10:00,68.6,54.6,29.34,NNW,339,2.0,7.0,61,0.00,,---,0.00,VWS V15.00,2015-07-06 02:10:00,
2015-07-05 20:16:00,68.4,54.4,29.30,North,0,3.0,7.0,61,0.00,,---,0.00,VWS V15.00,2015-07-06 02:16:00,
2015-07-05 20:22:00,68.3,54.8,29.30,NNW,347,3.0,4.0,62,0.00,,---,0.00,VWS V15.00,2015-07-06 02:22:00,
2015-07-05 20:29:00,67.8,54.8,29.30,NNE,28,1.0,6.0,63,0.00,,---,0.00,VWS V15.00,2015-07-06 02:29:00,
2015-07-05 20:35:00,67.8,54.8,29.30,North,359,2.0,6.0,63,0.00,,---,0.00,VWS V15.00,2015-07-06 02:35:00,
2015-07-05 20:41:00,67.8,54.3,29.30,North,0,0.0,6.0,62,0.00,,---,0.00,VWS V15.00,2015-07-06 02:41:00,
2015-07-05 20:46:00,67.6,55.0,29.31,North,357,0.0,6.0,64,0.00,,---,0.00,VWS V15.00,2015-07-06 02:46:00,
2015-07-05 20:53:00,67.4,54.4,29.31,North,0,0.0,7.0,63,0.00,,---,0.00,VWS V15.00,2015-07-06 02:53:00,
2015-07-05 20:59:00,67.4,53.9,29.31,North,0,3.0,7.0,62,0.00,,---,0.00,VWS V15.00,2015-07-06 02:59:00,
2015-07-05 21:05:00,67.6,54.1,29.32,North,0,0.0,0.0,62,0.00,,---,0.00,VWS V15.00,2015-07-06 03:05:00,
2015-07-05 21:11:00,67.4,54.8,29.32,North,0,0.0,0.0,64,0.00,,---,0.00,VWS V15.00,2015-07-06 03:11:00,
2015-07-05 21:16:00,67.1,54.1,29.28,North,0,0.0,0.0,63,0.00,,---,0.00,VWS V15.00,2015-07-06 03:16:00,
2015-07-05 21:23:00,67.1,53.7,29.28,North,0,0.0,1.0,62,0.00,,---,0.00,VWS V15.00,2015-07-06 03:23:00,
2015-07-05 21:29:00,67.1,54.1,29.28,North,0,0.0,1.0,63,0.00,,---,0.00,VWS V15.00,2015-07-06 03:29:00,
2015-07-05 21:35:00,66.9,53.9,29.29,North,0,0.0,0.0,63,0.00,,---,0.00,VWS V15.00,2015-07-06 03:35:00,
2015-07-05 21:41:00,67.1,54.1,29.29,North,0,0.0,0.0,63,0.00,,---,0.00,VWS V15.00,2015-07-06 03:41:00,
2015-07-05 21:46:00,66.9,53.5,29.29,North,0,0.0,0.0,62,0.00,,---,0.00,VWS V15.00,2015-07-06 03:46:00,
2015-07-05 21:53:00,67.1,54.1,29.29,North,0,0.0,0.0,63,0.00,,---,0.00,VWS V15.00,2015-07-06 03:53:00,